Cielo Di Vaiano — D5AQ2 — position and weather

sailwx.info

Track history (hours):
 
Tides and Currents Weather Stations Pressure Air Temp Water Temp Dewpoint Dewpoint Depression Visibility Wind Speed Wind Dir Waves Ship Positions

Cielo Di Vaiano

Last reported at 2015-Jul-04 23:05 UTC. Time now 2015-Jul-05 06:01 UTC.
Position S 35°02' W 057°10'.

Length 183 m; draft 7.4 m.

Type: Cargo ship. MMSI: 636015421.

Date/timePositionNaut miles runAvg speedWind from/ knotsBaromVisibWave heightAir tempDewpointWater temp
2015-Jul-04 23:05S 35°02' W 057°10'23 7.9
2015-Jul-04 20:08S 34°47' W 057°32'6 9.4
2015-Jul-04 19:33S 34°45' W 057°38'8 7.8
2015-Jul-04 18:33S 34°45' W 057°48'0 0.2
2015-Jul-04 17:33S 34°45' W 057°48'0 0.0
2015-Jul-04 16:33S 34°45' W 057°48'0 0.2
2015-Jul-04 15:33S 34°45' W 057°48'9 9.0
2015-Jul-04 14:33S 34°41' W 057°58'1212.4
2015-Jul-04 13:33S 34°29' W 057°57'1212.2
2015-Jul-04 12:33S 34°17' W 058°02'  
Track history (hours):
 
Tides and Currents Weather Stations Pressure Air Temp Water Temp Dewpoint Dewpoint Depression Visibility Wind Speed Wind Dir Waves Ship Positions

Cielo Di Vaiano

Last reported at 2015-Jul-04 23:05 UTC. Time now 2015-Jul-05 06:01 UTC.
Position S 35°02' W 057°10'.

Length 183 m; draft 7.4 m.

Type: Cargo ship. MMSI: 636015421.

Date/timePositionNaut miles runAvg speedWind from/ knotsBaromVisibWave heightAir tempDewpointWater temp
2015-Jul-04 23:05S 35°02' W 057°10'23 7.9
2015-Jul-04 20:08S 34°47' W 057°32'6 9.4
2015-Jul-04 19:33S 34°45' W 057°38'8 7.8
2015-Jul-04 18:33S 34°45' W 057°48'0 0.2
2015-Jul-04 17:33S 34°45' W 057°48'0 0.0
2015-Jul-04 16:33S 34°45' W 057°48'0 0.2
2015-Jul-04 15:33S 34°45' W 057°48'9 9.0
2015-Jul-04 14:33S 34°41' W 057°58'1212.4
2015-Jul-04 13:33S 34°29' W 057°57'1212.2
2015-Jul-04 12:33S 34°17' W 058°02'  

Dump ship's entire track history